createdAt,value
2022-12-06T00:01:22.545Z,3.30
2022-12-06T00:03:53.992Z,3.30
2022-12-06T00:06:23.802Z,3.20
2022-12-06T00:08:53.909Z,3.20
2022-12-06T00:11:24.227Z,3.10
2022-12-06T00:13:54.948Z,3.30
2022-12-06T00:16:24.178Z,3.20
2022-12-06T00:18:53.092Z,3.20
2022-12-06T00:21:22.432Z,3.10
2022-12-06T00:23:54.135Z,3.20
2022-12-06T00:26:23.233Z,3.20
2022-12-06T00:28:54.300Z,3.30
2022-12-06T00:31:24.408Z,3.30
2022-12-06T00:33:53.037Z,3.20
2022-12-06T00:36:23.459Z,3.30
2022-12-06T00:38:53.304Z,3.50
2022-12-06T00:41:23.426Z,3.30
2022-12-06T00:43:52.699Z,3.20
2022-12-06T00:46:22.992Z,3.20
2022-12-06T00:48:51.976Z,3.20
2022-12-06T00:51:21.688Z,3.20
2022-12-06T00:53:50.116Z,3.10
2022-12-06T00:56:20.724Z,3.10
2022-12-06T00:58:49.568Z,3.20
2022-12-06T01:01:20.393Z,3.20
2022-12-06T01:03:51.569Z,3.10
2022-12-06T01:06:21.348Z,3.10
2022-12-06T01:08:49.743Z,3.30
2022-12-06T01:11:19.503Z,3.20
2022-12-06T01:13:47.520Z,3.20
2022-12-06T01:16:18.196Z,3.30
2022-12-06T01:18:47.781Z,3.30
2022-12-06T01:21:18.373Z,3.20
2022-12-06T01:23:47.561Z,3.20
2022-12-06T01:26:20.075Z,3.20
2022-12-06T01:28:48.497Z,3.40
2022-12-06T01:31:17.499Z,3.50
2022-12-06T01:33:46.249Z,3.40
2022-12-06T01:36:18.706Z,3.40
2022-12-06T01:38:50.795Z,3.30
2022-12-06T01:41:21.908Z,3.40
2022-12-06T01:43:50.035Z,3.30
2022-12-06T01:46:28.693Z,3.30
2022-12-06T01:49:06.633Z,3.30
2022-12-06T01:51:35.388Z,3.20
2022-12-06T01:54:06.858Z,3.30
2022-12-06T01:56:36.877Z,3.30
2022-12-06T01:59:06.446Z,3.30
2022-12-06T02:01:35.860Z,3.40
2022-12-06T02:04:04.346Z,3.50
2022-12-06T02:06:33.729Z,3.50
2022-12-06T02:09:05.217Z,3.30
2022-12-06T02:11:35.675Z,3.30
2022-12-06T02:14:06.008Z,3.20
2022-12-06T02:16:53.441Z,3.50
2022-12-06T02:19:47.792Z,3.30
2022-12-06T02:22:23.494Z,3.20
2022-12-06T02:25:00.874Z,3.30
2022-12-06T02:27:50.116Z,3.30
2022-12-06T02:30:37.380Z,3.20
2022-12-06T02:33:09.245Z,3.20
2022-12-06T02:35:41.468Z,3.10
2022-12-06T02:38:15.684Z,3.20
2022-12-06T02:40:50.256Z,3.30
2022-12-06T02:43:22.709Z,3.30
2022-12-06T02:45:56.106Z,3.30
2022-12-06T02:48:26.629Z,3.40
2022-12-06T02:51:00.365Z,3.30
2022-12-06T02:53:30.856Z,3.30
2022-12-06T02:56:00.120Z,3.30
2022-12-06T02:58:28.157Z,3.20
2022-12-06T03:00:59.260Z,3.20
2022-12-06T03:03:57.494Z,3.30
2022-12-06T03:06:50.630Z,3.30
2022-12-06T03:09:50.110Z,3.40
2022-12-06T03:12:30.405Z,3.20
2022-12-06T03:15:06.916Z,3.20
2022-12-06T03:17:41.882Z,3.40
2022-12-06T03:20:14.396Z,3.30
2022-12-06T03:22:47.809Z,3.30
2022-12-06T03:25:17.680Z,3.10
2022-12-06T03:27:47.810Z,3.20
2022-12-06T03:30:16.959Z,3.20
2022-12-06T03:32:49.122Z,3.10
2022-12-06T03:35:20.893Z,3.20
2022-12-06T03:37:52.937Z,3.10
2022-12-06T03:40:24.463Z,3.00
2022-12-06T03:42:53.282Z,3.10
2022-12-06T03:45:23.827Z,3.10
2022-12-06T03:47:59.710Z,3.20
2022-12-06T03:50:33.531Z,3.20
2022-12-06T03:53:02.385Z,3.10
2022-12-06T03:55:30.441Z,3.00
2022-12-06T03:57:58.510Z,2.90
2022-12-06T04:00:26.529Z,3.00
2022-12-06T04:02:56.292Z,3.10
2022-12-06T04:05:24.315Z,3.00
2022-12-06T04:07:52.310Z,2.80
2022-12-06T04:10:20.568Z,2.90
2022-12-06T04:13:05.832Z,3.00
2022-12-06T04:15:36.914Z,3.00
2022-12-06T04:18:16.198Z,3.10
2022-12-06T04:21:04.290Z,3.00
2022-12-06T04:23:34.472Z,3.00
2022-12-06T04:26:02.855Z,3.10
2022-12-06T04:28:48.171Z,3.20
2022-12-06T04:31:34.350Z,3.20
2022-12-06T04:34:21.012Z,3.20
2022-12-06T04:37:06.649Z,3.10
2022-12-06T04:39:35.137Z,3.30
2022-12-06T04:42:21.584Z,3.10
2022-12-06T04:44:49.686Z,3.10
2022-12-06T04:47:17.760Z,3.10
2022-12-06T04:49:47.150Z,3.10
2022-12-06T04:52:15.198Z,2.90
2022-12-06T04:54:43.624Z,3.00
2022-12-06T04:57:13.505Z,3.10
2022-12-06T04:59:43.011Z,3.10
2022-12-06T05:02:13.911Z,3.10
2022-12-06T05:04:42.305Z,3.20
2022-12-06T05:07:12.579Z,3.10
2022-12-06T05:09:40.620Z,3.10
2022-12-06T05:12:09.153Z,3.00
2022-12-06T05:14:37.179Z,2.90
2022-12-06T05:17:05.536Z,3.00
2022-12-06T05:19:33.653Z,2.90
2022-12-06T05:22:01.736Z,3.00
2022-12-06T05:24:31.276Z,2.90
2022-12-06T05:26:59.324Z,2.90
2022-12-06T05:29:27.482Z,2.80
2022-12-06T05:31:55.575Z,2.90
2022-12-06T05:34:24.846Z,2.80
2022-12-06T05:36:52.843Z,2.90
2022-12-06T05:39:21.135Z,3.00
2022-12-06T05:41:50.501Z,3.00
2022-12-06T05:44:18.708Z,2.90
2022-12-06T05:46:46.700Z,2.80
2022-12-06T05:49:14.850Z,2.80
2022-12-06T05:51:43.215Z,2.90
2022-12-06T05:54:11.216Z,2.80
2022-12-06T05:56:39.869Z,2.90
2022-12-06T05:59:09.325Z,2.80
2022-12-06T06:01:37.438Z,3.00
2022-12-06T06:04:05.796Z,2.80
2022-12-06T06:06:33.881Z,2.80
2022-12-06T06:09:02.169Z,2.80
2022-12-06T06:11:30.903Z,2.80
2022-12-06T06:13:58.890Z,2.80
2022-12-06T06:16:28.667Z,2.80
2022-12-06T06:18:56.773Z,2.90
2022-12-06T06:21:24.823Z,2.90
2022-12-06T06:23:52.804Z,2.70
2022-12-06T06:26:21.134Z,2.70
2022-12-06T06:28:49.204Z,2.80
2022-12-06T06:31:17.327Z,2.80
2022-12-06T06:33:46.847Z,2.70
2022-12-06T06:36:15.423Z,2.80
2022-12-06T06:38:43.491Z,2.80
2022-12-06T06:41:12.596Z,2.70
2022-12-06T06:43:40.894Z,2.60
2022-12-06T06:46:09.254Z,2.60
2022-12-06T06:48:39.655Z,2.70
2022-12-06T06:51:11.068Z,2.70
2022-12-06T06:53:40.047Z,2.80
2022-12-06T06:56:08.840Z,2.80
2022-12-06T06:58:37.033Z,2.90
2022-12-06T07:01:07.619Z,2.90
2022-12-06T07:03:36.619Z,2.90
2022-12-06T07:06:08.259Z,3.00
2022-12-06T07:08:38.748Z,3.00
2022-12-06T07:11:07.580Z,2.70
2022-12-06T07:13:36.085Z,2.80
2022-12-06T07:16:05.136Z,2.90
2022-12-06T07:18:33.543Z,2.80
2022-12-06T07:21:03.938Z,2.80
2022-12-06T07:23:33.001Z,2.80
2022-12-06T07:26:04.435Z,2.90
2022-12-06T07:28:33.490Z,2.90
2022-12-06T07:31:09.315Z,2.70
2022-12-06T07:33:37.989Z,2.90
2022-12-06T07:36:14.372Z,2.90
2022-12-06T07:38:43.636Z,2.80
2022-12-06T07:41:32.492Z,3.00
2022-12-06T07:44:19.763Z,3.70
2022-12-06T07:46:48.487Z,3.30
2022-12-06T07:49:16.915Z,3.00
2022-12-06T07:51:45.945Z,3.00
2022-12-06T07:54:14.771Z,3.10
2022-12-06T07:56:44.891Z,3.20
2022-12-06T07:59:14.013Z,3.10
2022-12-06T08:01:42.867Z,3.10
2022-12-06T08:04:11.278Z,3.00
2022-12-06T08:06:39.748Z,3.20
2022-12-06T08:09:08.442Z,3.00
2022-12-06T08:11:36.748Z,3.00
2022-12-06T08:14:06.394Z,3.20
2022-12-06T08:16:34.909Z,3.20
2022-12-06T08:19:03.073Z,3.20
2022-12-06T08:21:31.112Z,3.20
2022-12-06T08:23:59.193Z,3.10
2022-12-06T08:26:27.468Z,3.10
2022-12-06T08:28:55.482Z,3.20
2022-12-06T08:31:25.723Z,3.30
2022-12-06T08:33:54.189Z,3.40
2022-12-06T08:36:23.987Z,3.40
2022-12-06T08:38:52.776Z,3.50
2022-12-06T08:41:39.630Z,3.40
2022-12-06T08:44:08.981Z,3.30
2022-12-06T08:46:38.490Z,3.40
2022-12-06T08:49:06.999Z,3.60
2022-12-06T08:51:35.888Z,3.50
2022-12-06T08:54:06.132Z,3.60
2022-12-06T08:56:34.514Z,3.50
2022-12-06T08:59:02.569Z,3.60
2022-12-06T09:01:37.690Z,3.60
2022-12-06T09:04:09.762Z,3.40
2022-12-06T09:06:39.845Z,3.60
2022-12-06T09:09:09.074Z,3.60
2022-12-06T09:11:37.225Z,3.50
2022-12-06T09:14:07.385Z,3.50
2022-12-06T09:16:35.841Z,3.50
2022-12-06T09:19:03.937Z,3.60
2022-12-06T09:21:34.465Z,3.50
2022-12-06T09:24:02.602Z,3.50
2022-12-06T09:26:30.660Z,3.70
2022-12-06T09:28:59.923Z,3.80
2022-12-06T09:31:28.024Z,3.60
2022-12-06T09:33:56.631Z,3.60
2022-12-06T09:36:26.356Z,3.70
2022-12-06T09:38:59.109Z,3.70
2022-12-06T09:41:49.554Z,3.70
2022-12-06T09:44:35.351Z,3.70
2022-12-06T09:47:16.093Z,3.70
2022-12-06T09:49:52.557Z,3.80
2022-12-06T09:52:49.611Z,3.80
2022-12-06T09:55:29.372Z,4.00
2022-12-06T09:58:04.986Z,3.90
2022-12-06T10:00:42.171Z,3.90
2022-12-06T10:03:38.908Z,3.80
2022-12-06T10:06:13.092Z,3.90
2022-12-06T10:09:07.194Z,3.80
2022-12-06T10:11:58.729Z,4.10
2022-12-06T10:14:41.017Z,4.00
2022-12-06T10:17:26.748Z,4.00
2022-12-06T10:20:04.746Z,4.10
2022-12-06T10:22:46.195Z,4.00
2022-12-06T10:25:19.145Z,4.00
2022-12-06T10:27:54.924Z,4.00
2022-12-06T10:30:23.058Z,4.10
2022-12-06T10:32:53.570Z,4.20
2022-12-06T10:35:34.632Z,4.30
2022-12-06T10:38:10.475Z,4.20
2022-12-06T10:40:50.750Z,4.10
2022-12-06T10:43:27.214Z,4.10
2022-12-06T10:46:24.258Z,4.20
2022-12-06T10:49:04.090Z,4.10
2022-12-06T10:51:40.689Z,4.20
2022-12-06T10:54:21.477Z,4.10
2022-12-06T10:56:52.189Z,4.20
2022-12-06T10:59:31.454Z,4.20
2022-12-06T11:02:03.869Z,4.30
2022-12-06T11:04:37.094Z,4.30
2022-12-06T11:07:13.638Z,4.40
2022-12-06T11:09:43.388Z,4.50
2022-12-06T11:12:30.775Z,4.50
2022-12-06T11:15:08.652Z,4.40
2022-12-06T11:17:41.196Z,4.30
2022-12-06T11:20:22.408Z,4.40
2022-12-06T11:23:06.004Z,4.50
2022-12-06T11:25:41.891Z,4.50
2022-12-06T11:28:26.412Z,4.50
2022-12-06T11:30:57.763Z,4.50
2022-12-06T11:33:31.923Z,4.60
2022-12-06T11:36:03.707Z,4.70
2022-12-06T11:38:32.770Z,4.60
2022-12-06T11:41:00.918Z,4.70
2022-12-06T11:43:35.296Z,4.70
2022-12-06T11:46:07.627Z,4.70
2022-12-06T11:48:37.225Z,4.70
2022-12-06T11:51:18.624Z,4.70
2022-12-06T11:53:58.768Z,4.70
2022-12-06T11:56:30.038Z,4.70
2022-12-06T11:59:06.144Z,4.80
2022-12-06T12:01:45.205Z,4.80
2022-12-06T12:04:31.581Z,4.80
2022-12-06T12:07:01.875Z,4.90
2022-12-06T12:09:34.304Z,4.90
2022-12-06T12:12:06.074Z,4.80
2022-12-06T12:14:39.780Z,4.70
2022-12-06T12:17:19.149Z,4.90
2022-12-06T12:19:51.477Z,4.90
2022-12-06T12:22:28.897Z,5.10
2022-12-06T12:27:48.956Z,5.00
2022-12-06T12:30:26.335Z,4.90
2022-12-06T12:33:19.141Z,5.00
2022-12-06T12:35:49.499Z,5.00
2022-12-06T12:38:23.092Z,5.00
2022-12-06T12:40:54.425Z,4.80
2022-12-06T12:43:24.549Z,4.90
2022-12-06T12:46:23.254Z,4.90
2022-12-06T12:48:53.069Z,4.90
2022-12-06T12:51:25.800Z,4.90
2022-12-06T12:53:57.647Z,5.00
2022-12-06T12:56:25.916Z,4.90
2022-12-06T12:58:55.787Z,5.00
2022-12-06T13:01:37.937Z,5.10
2022-12-06T13:04:16.426Z,5.10
2022-12-06T13:06:50.153Z,5.00
2022-12-06T13:09:25.475Z,5.00
2022-12-06T13:11:58.362Z,5.00
2022-12-06T13:14:28.608Z,5.00
2022-12-06T13:17:01.545Z,5.10
2022-12-06T13:19:36.220Z,5.10
2022-12-06T13:22:06.010Z,5.10
2022-12-06T13:24:37.709Z,5.00
2022-12-06T13:27:13.808Z,5.10
2022-12-06T13:29:45.221Z,5.30
2022-12-06T13:32:17.524Z,5.20
2022-12-06T13:34:51.736Z,5.20
2022-12-06T13:37:29.526Z,5.10
2022-12-06T13:39:57.945Z,5.20
2022-12-06T13:42:42.551Z,5.20
2022-12-06T13:45:49.551Z,5.10
2022-12-06T13:48:38.892Z,5.00
2022-12-06T13:51:12.963Z,5.00
2022-12-06T13:54:14.393Z,5.10
2022-12-06T13:56:43.327Z,5.00
2022-12-06T13:59:40.164Z,5.00
2022-12-06T14:02:51.009Z,5.00
2022-12-06T14:08:21.146Z,5.00
2022-12-06T14:10:49.692Z,5.00
2022-12-06T14:13:21.878Z,4.90
2022-12-06T14:15:52.080Z,5.00
2022-12-06T14:18:27.250Z,5.00
2022-12-06T14:20:57.687Z,5.10
2022-12-06T14:23:30.321Z,5.00
2022-12-06T14:26:16.041Z,5.00
2022-12-06T14:28:44.750Z,5.10
2022-12-06T14:31:25.418Z,5.10
2022-12-06T14:33:55.212Z,5.10
2022-12-06T14:36:26.862Z,5.00
2022-12-06T14:39:01.019Z,4.90
2022-12-06T14:41:54.993Z,5.00
2022-12-06T14:44:29.687Z,5.00
2022-12-06T14:46:58.627Z,5.20
2022-12-06T14:49:46.437Z,5.10
2022-12-06T14:52:25.594Z,5.20
2022-12-06T14:55:15.796Z,5.20
2022-12-06T14:57:47.526Z,5.00
2022-12-06T15:00:26.368Z,5.00
2022-12-06T15:03:23.708Z,5.00
2022-12-06T15:05:57.492Z,4.80
2022-12-06T15:08:35.227Z,4.90
2022-12-06T15:11:08.122Z,4.90
2022-12-06T15:13:35.174Z,4.80
2022-12-06T15:16:15.376Z,4.90
2022-12-06T15:18:55.748Z,4.80
2022-12-06T15:21:24.097Z,4.80
2022-12-06T15:23:53.433Z,4.70
2022-12-06T15:26:24.195Z,4.70
2022-12-06T15:28:52.975Z,4.80
2022-12-06T15:31:23.780Z,4.80
2022-12-06T15:33:51.853Z,4.80
2022-12-06T15:36:21.866Z,4.90
2022-12-06T15:38:50.242Z,4.90
2022-12-06T15:41:20.477Z,4.90
2022-12-06T15:43:50.548Z,4.80
2022-12-06T15:46:21.457Z,4.90
2022-12-06T15:48:49.601Z,4.80
2022-12-06T15:51:21.115Z,4.80
2022-12-06T15:53:51.242Z,4.70
2022-12-06T15:56:21.264Z,4.70
2022-12-06T15:58:51.561Z,4.80
2022-12-06T16:01:22.715Z,4.60
2022-12-06T16:03:51.658Z,4.60
2022-12-06T16:06:20.918Z,4.70
2022-12-06T16:08:49.576Z,4.70
2022-12-06T16:11:22.925Z,4.60
2022-12-06T16:13:53.406Z,4.50
2022-12-06T16:16:22.878Z,4.60
2022-12-06T16:18:52.006Z,4.60
2022-12-06T16:21:23.362Z,4.50
2022-12-06T16:24:17.703Z,4.60
2022-12-06T16:26:46.232Z,4.60
2022-12-06T16:29:17.300Z,4.50
2022-12-06T16:31:46.819Z,4.50
2022-12-06T16:34:15.411Z,4.50
2022-12-06T16:36:58.675Z,4.60
2022-12-06T16:39:27.094Z,4.50
2022-12-06T16:41:55.149Z,4.50
2022-12-06T16:44:25.233Z,4.50
2022-12-06T16:46:53.675Z,4.40
2022-12-06T16:52:11.642Z,4.40
2022-12-06T16:54:41.607Z,4.30
2022-12-06T16:57:10.302Z,4.50
2022-12-06T16:59:40.545Z,4.40
2022-12-06T17:02:24.279Z,4.40
2022-12-06T17:04:52.753Z,4.40
2022-12-06T17:07:20.760Z,4.40
2022-12-06T17:09:49.084Z,4.40
2022-12-06T17:12:17.074Z,4.50
2022-12-06T17:14:47.191Z,4.50
2022-12-06T17:17:16.318Z,4.60
2022-12-06T17:19:45.068Z,4.50
2022-12-06T17:22:16.353Z,4.30
2022-12-06T17:24:44.839Z,4.30
2022-12-06T17:27:14.881Z,4.20
2022-12-06T17:29:43.989Z,4.30
2022-12-06T17:32:13.896Z,4.30
2022-12-06T17:34:41.902Z,4.30
2022-12-06T17:37:09.925Z,4.30
2022-12-06T17:39:38.422Z,4.50
2022-12-06T17:42:24.833Z,4.40
2022-12-06T17:44:53.165Z,4.40
2022-12-06T17:47:22.570Z,4.30
2022-12-06T17:49:50.701Z,4.20
2022-12-06T17:52:19.628Z,4.20
2022-12-06T17:54:47.949Z,4.30
2022-12-06T17:57:18.456Z,4.40
2022-12-06T17:59:47.958Z,4.30
2022-12-06T18:02:18.652Z,4.40
2022-12-06T18:04:48.988Z,4.30
2022-12-06T18:07:18.241Z,4.30
2022-12-06T18:09:46.688Z,4.30
2022-12-06T18:12:16.807Z,4.30
2022-12-06T18:14:45.145Z,4.20
2022-12-06T18:17:13.549Z,4.10
2022-12-06T18:19:41.644Z,4.20
2022-12-06T18:22:11.025Z,4.20
2022-12-06T18:24:39.118Z,4.10
2022-12-06T18:27:08.570Z,4.20
2022-12-06T18:29:36.669Z,4.10
2022-12-06T18:32:05.426Z,4.00
2022-12-06T18:34:33.557Z,4.00
2022-12-06T18:37:02.108Z,4.00
2022-12-06T18:39:31.631Z,4.00
2022-12-06T18:41:59.666Z,4.00
2022-12-06T18:44:27.938Z,4.00
2022-12-06T18:46:56.042Z,3.90
2022-12-06T18:49:24.035Z,3.80
2022-12-06T18:51:52.044Z,3.80
2022-12-06T18:54:20.479Z,3.70
2022-12-06T18:56:49.859Z,3.90
2022-12-06T18:59:19.299Z,3.80
2022-12-06T19:01:49.032Z,3.70
2022-12-06T19:04:18.629Z,3.70
2022-12-06T19:06:46.664Z,3.50
2022-12-06T19:09:16.280Z,3.60
2022-12-06T19:11:46.907Z,3.70
2022-12-06T19:14:17.062Z,3.60
2022-12-06T19:16:46.926Z,3.60
2022-12-06T19:19:18.574Z,3.70
2022-12-06T19:21:47.346Z,3.60
2022-12-06T19:24:17.435Z,3.50
2022-12-06T19:26:46.046Z,3.60
2022-12-06T19:29:14.176Z,3.40
2022-12-06T19:31:46.845Z,3.30
2022-12-06T19:34:17.999Z,3.40
2022-12-06T19:36:48.995Z,3.50
2022-12-06T19:39:18.062Z,3.40
2022-12-06T19:42:04.108Z,3.30
2022-12-06T19:44:32.470Z,3.40
2022-12-06T19:47:02.171Z,3.50
2022-12-06T19:49:30.333Z,3.50
2022-12-06T19:51:58.486Z,3.50
2022-12-06T19:54:28.941Z,3.40
2022-12-06T19:56:59.327Z,3.40
2022-12-06T19:59:29.083Z,3.40
2022-12-06T20:01:58.517Z,3.40
2022-12-06T20:04:30.643Z,3.40
2022-12-06T20:06:59.442Z,3.50
2022-12-06T20:09:30.014Z,3.60
2022-12-06T20:12:02.704Z,3.60
2022-12-06T20:14:35.675Z,3.60
2022-12-06T20:17:04.490Z,3.60
2022-12-06T20:19:34.663Z,3.60
2022-12-06T20:22:03.193Z,3.50
2022-12-06T20:24:31.591Z,3.50
2022-12-06T20:26:59.694Z,3.40
2022-12-06T20:29:30.347Z,3.50
2022-12-06T20:31:59.653Z,3.50
2022-12-06T20:34:29.706Z,3.40
2022-12-06T20:36:59.365Z,3.40
2022-12-06T20:39:28.686Z,3.30
2022-12-06T20:41:57.170Z,3.40
2022-12-06T20:44:25.216Z,3.40
2022-12-06T20:46:54.298Z,3.40
2022-12-06T20:49:22.421Z,3.40
2022-12-06T20:51:53.247Z,3.40
2022-12-06T20:54:23.380Z,3.40
2022-12-06T20:56:53.387Z,3.20
2022-12-06T20:59:22.053Z,3.20
2022-12-06T21:01:50.874Z,3.20
2022-12-06T21:04:19.240Z,3.10
2022-12-06T21:06:47.242Z,3.00
2022-12-06T21:09:15.308Z,3.00
2022-12-06T21:11:44.728Z,3.00
2022-12-06T21:14:14.093Z,3.10
2022-12-06T21:16:43.814Z,3.00
2022-12-06T21:19:14.400Z,3.10
2022-12-06T21:21:45.693Z,3.10
2022-12-06T21:24:15.489Z,3.30
2022-12-06T21:26:45.089Z,3.10
2022-12-06T21:29:16.769Z,2.90
2022-12-06T21:31:45.151Z,3.00
2022-12-06T21:34:13.758Z,3.00
2022-12-06T21:36:42.256Z,3.00
2022-12-06T21:39:12.390Z,3.00
2022-12-06T21:41:40.572Z,2.90
2022-12-06T21:44:09.998Z,2.90
2022-12-06T21:46:38.068Z,3.00
2022-12-06T21:49:06.171Z,3.10
2022-12-06T21:51:34.298Z,3.00
2022-12-06T21:54:02.392Z,2.90
2022-12-06T21:56:32.827Z,2.80
2022-12-06T21:59:01.451Z,2.90
2022-12-06T22:01:32.751Z,2.90
2022-12-06T22:04:03.772Z,2.90
2022-12-06T22:06:32.605Z,2.80
2022-12-06T22:09:02.573Z,2.80
2022-12-06T22:11:31.397Z,2.90
2022-12-06T22:14:00.338Z,2.80
2022-12-06T22:16:30.448Z,2.90
2022-12-06T22:18:59.079Z,2.90
2022-12-06T22:21:29.972Z,2.90
2022-12-06T22:23:59.086Z,2.90
2022-12-06T22:26:29.364Z,3.00
2022-12-06T22:28:59.158Z,3.10
2022-12-06T22:31:30.901Z,2.90
2022-12-06T22:33:59.435Z,2.90
2022-12-06T22:36:28.858Z,2.90
2022-12-06T22:38:58.416Z,2.90
2022-12-06T22:41:27.201Z,3.00
2022-12-06T22:43:58.008Z,2.90
2022-12-06T22:46:27.291Z,3.00
2022-12-06T22:48:58.092Z,3.10
2022-12-06T22:51:27.812Z,3.10
2022-12-06T22:53:57.597Z,3.10
2022-12-06T22:56:26.498Z,3.10
2022-12-06T22:58:55.278Z,3.20
2022-12-06T23:01:26.534Z,3.00
2022-12-06T23:03:56.456Z,3.10
2022-12-06T23:06:27.072Z,3.10
2022-12-06T23:08:55.748Z,3.20
2022-12-06T23:11:26.232Z,3.10
2022-12-06T23:13:54.994Z,3.20
2022-12-06T23:16:25.456Z,3.20
2022-12-06T23:18:53.629Z,3.30
2022-12-06T23:21:25.179Z,3.30
2022-12-06T23:23:55.221Z,3.20
2022-12-06T23:26:25.609Z,3.10
2022-12-06T23:28:53.702Z,3.20
2022-12-06T23:31:24.676Z,3.30
2022-12-06T23:33:54.572Z,3.30
2022-12-06T23:36:25.705Z,3.40
2022-12-06T23:38:54.344Z,3.40
2022-12-06T23:41:24.982Z,3.30
2022-12-06T23:43:54.397Z,3.40
2022-12-06T23:46:25.366Z,3.40
2022-12-06T23:48:54.142Z,3.40
2022-12-06T23:51:24.755Z,3.40
2022-12-06T23:53:54.573Z,3.40
2022-12-06T23:56:23.563Z,3.40
2022-12-06T23:58:52.225Z,3.50
